Time;durP1;ratioP1;P1;durP2;ratioP2;P2;SDS_P1;SDS_P2;PMS_P1;PMS_P2;Temp;Humidity;BMP_temperature;BMP_pressure;BME280_temperature;BME280_humidity;BME280_pressure;Samples;Min_cycle;Max_cycle;Signal;HPM_P1;HPM_P2
2022/03/04 15:14:54;;;;;;;;;;;30.50;99.90;;;;;;305801;46;621256981;31
2022/03/04 15:16:16;;;;;;;5.60;4.90;;;32.60;22.60;;;;;;1081115;47;20728;-68
2022/03/04 15:17:38;;;;;;;6.20;5.18;;;32.30;22.40;;;;;;1081204;46;20082;-68
2022/03/04 15:18:59;;;;;;;7.15;5.05;;;32.20;21.20;;;;;;1081093;46;21673;-70
2022/03/04 15:20:20;;;;;;;6.18;5.25;;;32.10;20.30;;;;;;1081275;47;20043;-69
2022/03/04 15:21:44;;;;;;;5.35;4.68;;;32.10;19.80;;;;;;1081002;46;20572;-69
2022/03/04 15:23:05;;;;;;;7.32;5.60;;;32.00;19.30;;;;;;1082635;39;20466;-69
2022/03/04 15:24:27;;;;;;;5.97;5.43;;;31.90;18.90;;;;;;1082148;47;20062;-69
2022/03/04 15:25:49;;;;;;;7.18;6.07;;;31.70;18.50;;;;;;1081618;47;20621;-69
2022/03/04 15:27:11;;;;;;;6.38;5.38;;;31.50;18.30;;;;;;1081862;47;20126;-68
2022/03/04 15:28:32;;;;;;;6.30;5.70;;;31.30;18.10;;;;;;1082040;46;20486;-69
2022/03/04 15:29:53;;;;;;;7.10;6.22;;;31.00;17.90;;;;;;1081787;46;20030;-69
2022/03/04 15:31:14;;;;;;;6.80;6.10;;;30.80;18.00;;;;;;1082116;46;20034;-69
2022/03/04 15:32:35;;;;;;;5.75;5.15;;;30.60;18.00;;;;;;1081721;47;21090;-69
2022/03/04 15:33:57;;;;;;;5.97;4.90;;;30.40;18.00;;;;;;1081658;47;20129;-69
2022/03/04 15:35:18;;;;;;;5.88;4.68;;;30.30;17.90;;;;;;1081356;39;20692;-69
2022/03/04 15:36:39;;;;;;;5.40;4.65;;;30.20;17.90;;;;;;1082169;46;20038;-70
2022/03/04 15:38:00;;;;;;;5.18;4.45;;;30.10;18.00;;;;;;1082325;46;20799;-68
2022/03/04 15:39:21;;;;;;;4.25;3.85;;;30.20;17.80;;;;;;1082152;47;20042;-71
2022/03/04 15:40:43;;;;;;;4.97;4.47;;;30.10;17.60;;;;;;1081128;47;20063;-71
2022/03/04 15:42:04;;;;;;;5.68;5.05;;;30.20;17.80;;;;;;1081227;46;20039;-70
2022/03/04 15:43:27;;;;;;;5.32;4.80;;;30.20;17.90;;;;;;1081680;46;21060;-69
2022/03/04 15:44:52;;;;;;;5.82;5.22;;;30.30;17.90;;;;;;1082335;46;20045;-70
2022/03/04 15:46:13;;;;;;;6.22;5.38;;;30.30;17.80;;;;;;1081923;47;20038;-70
2022/03/04 15:47:34;;;;;;;5.95;5.35;;;30.40;17.90;;;;;;1081919;46;20065;-68
2022/03/04 15:48:55;;;;;;;7.78;6.25;;;30.50;17.90;;;;;;1081825;47;20141;-69
2022/03/04 15:50:17;;;;;;;7.30;6.07;;;30.50;17.80;;;;;;1081952;47;20042;-69
2022/03/04 15:51:40;;;;;;;8.63;6.40;;;30.50;17.80;;;;;;1081749;46;20172;-69
2022/03/04 15:53:01;;;;;;;7.65;6.65;;;30.50;17.60;;;;;;1082044;47;20042;-69
2022/03/04 15:54:23;;;;;;;9.80;7.00;;;30.50;17.60;;;;;;1082418;46;20035;-70
2022/03/04 15:55:45;;;;;;;7.03;6.15;;;30.60;17.60;;;;;;1081686;46;20035;-69
2022/03/04 15:57:06;;;;;;;7.88;6.80;;;30.60;17.50;;;;;;1082476;46;20035;-70
2022/03/04 15:58:27;;;;;;;7.70;6.82;;;30.60;17.50;;;;;;1082101;47;20042;-68
2022/03/04 15:59:49;;;;;;;8.32;7.43;;;30.70;17.50;;;;;;1081957;47;20042;-68
2022/03/04 16:01:10;;;;;;;8.65;6.95;;;30.70;17.80;;;;;;1081994;46;20034;-69
2022/03/04 16:02:31;;;;;;;7.75;6.88;;;30.60;17.30;;;;;;1082556;46;20038;-69
2022/03/04 16:03:53;;;;;;;8.48;7.15;;;30.50;17.20;;;;;;1082596;39;20380;-69
2022/03/04 16:05:14;;;;;;;8.65;6.72;;;30.40;17.10;;;;;;1081321;46;20035;-69
2022/03/04 16:06:35;;;;;;;8.13;7.13;;;30.20;17.00;;;;;;1080778;47;20039;-69
2022/03/04 16:07:57;;;;;;;8.82;7.50;;;30.10;17.10;;;;;;1080338;46;20505;-69
2022/03/04 16:09:18;;;;;;;8.15;6.65;;;29.90;16.90;;;;;;1080780;47;20035;-68
2022/03/04 16:10:40;;;;;;;8.73;7.05;;;29.60;16.80;;;;;;1080937;47;20141;-70
2022/03/04 16:12:02;;;;;;;9.73;6.90;;;29.40;16.80;;;;;;1080785;47;20046;-69
2022/03/04 16:13:23;;;;;;;9.05;7.55;;;29.20;16.90;;;;;;1080629;47;20971;-69
2022/03/04 16:14:44;;;;;;;8.43;7.13;;;29.00;16.90;;;;;;1080646;47;20034;-68
2022/03/04 16:16:05;;;;;;;9.25;7.40;;;28.70;17.00;;;;;;1080723;46;20895;-69
2022/03/04 16:17:28;;;;;;;10.05;8.13;;;28.40;17.00;;;;;;1081647;39;20478;-68
2022/03/04 16:18:49;;;;;;;11.43;7.88;;;28.20;17.20;;;;;;1082239;39;20848;-70
2022/03/04 16:20:10;;;;;;;10.13;7.95;;;27.90;17.30;;;;;;1081869;47;20118;-68
2022/03/04 16:21:33;;;;;;;10.15;8.30;;;27.60;17.30;;;;;;1081680;47;20859;-69
2022/03/04 16:22:54;;;;;;;9.38;7.63;;;27.30;17.30;;;;;;1081856;46;20046;-70
2022/03/04 16:24:15;;;;;;;10.55;7.95;;;27.10;17.30;;;;;;1081004;46;20055;-70
2022/03/04 16:25:36;;;;;;;9.32;7.72;;;26.80;17.30;;;;;;1080747;39;20360;-69
2022/03/04 16:26:59;;;;;;;8.90;7.25;;;26.60;17.50;;;;;;1080360;47;20467;-68
2022/03/04 16:28:20;;;;;;;10.35;7.72;;;26.30;17.60;;;;;;1081583;39;20460;-70
2022/03/04 16:29:41;;;;;;;9.63;7.65;;;26.10;17.80;;;;;;1080416;46;20497;-69
2022/03/04 16:31:03;;;;;;;9.43;8.27;;;25.90;18.10;;;;;;1080908;47;20054;-71
2022/03/04 16:32:26;;;;;;;10.23;7.95;;;25.70;18.30;;;;;;1081422;39;20925;-68
2022/03/04 16:33:47;;;;;;;10.38;8.60;;;25.50;18.30;;;;;;1080420;46;20064;-69
2022/03/04 16:35:08;;;;;;;10.55;8.25;;;25.30;18.30;;;;;;1080354;46;20038;-69
2022/03/04 16:36:30;;;;;;;12.10;8.55;;;25.20;18.40;;;;;;1081692;39;20414;-69
2022/03/04 16:37:51;;;;;;;11.07;8.27;;;25.10;18.60;;;;;;1080403;47;20038;-70
2022/03/04 16:39:13;;;;;;;10.25;8.30;;;24.90;18.70;;;;;;1081975;46;20042;-69
2022/03/04 16:40:34;;;;;;;11.65;9.02;;;24.70;18.70;;;;;;1081585;47;20585;-70
2022/03/04 16:41:56;;;;;;;10.23;8.23;;;24.60;18.90;;;;;;1081779;46;20038;-69
2022/03/04 16:43:18;;;;;;;11.52;9.00;;;24.50;19.00;;;;;;1082408;39;20426;-69
2022/03/04 16:44:39;;;;;;;12.13;8.55;;;24.30;19.00;;;;;;1081697;46;20038;-69
2022/03/04 16:46:01;;;;;;;10.45;8.68;;;24.20;19.20;;;;;;1082046;46;20034;-69
2022/03/04 16:47:22;;;;;;;11.38;9.07;;;24.00;19.20;;;;;;1081703;47;20038;-69
2022/03/04 16:48:47;;;;;;;11.55;8.65;;;23.80;19.10;;;;;;1082522;39;20714;-70
2022/03/04 16:50:09;;;;;;;11.35;8.68;;;23.60;19.20;;;;;;1081761;47;20049;-70
2022/03/04 16:51:30;;;;;;;11.75;8.68;;;23.40;19.30;;;;;;1081414;46;20038;-69
2022/03/04 16:52:51;;;;;;;12.52;9.02;;;23.10;19.50;;;;;;1082247;46;20046;-68
2022/03/04 16:54:12;;;;;;;13.40;8.38;;;22.90;19.70;;;;;;1082298;47;20045;-69
2022/03/04 16:55:33;;;;;;;11.88;8.40;;;22.70;19.90;;;;;;1081552;46;20038;-69
2022/03/04 16:56:54;;;;;;;11.68;9.02;;;22.50;20.10;;;;;;1081689;47;20558;-69
2022/03/04 16:58:16;;;;;;;11.68;8.65;;;22.30;20.00;;;;;;1081199;46;20042;-70
2022/03/04 16:59:37;;;;;;;15.05;9.77;;;22.00;20.00;;;;;;1082158;46;20062;-68
2022/03/04 17:00:59;;;;;;;13.80;9.77;;;21.80;20.20;;;;;;1081322;47;20804;-69
2022/03/04 17:02:20;;;;;;;15.15;10.13;;;21.60;20.30;;;;;;1081421;46;20076;-70
2022/03/04 17:03:41;;;;;;;12.68;8.98;;;21.40;20.50;;;;;;1081958;47;20038;-69
2022/03/04 17:05:03;;;;;;;15.30;10.07;;;21.20;20.60;;;;;;1082077;46;20154;-69
2022/03/04 17:06:25;;;;;;;13.20;9.52;;;21.00;20.80;;;;;;1081796;46;20034;-70
2022/03/04 17:07:47;;;;;;;16.35;10.60;;;20.80;21.00;;;;;;1081072;47;20061;-69
2022/03/04 17:09:07;;;;;;;13.50;9.70;;;20.70;21.10;;;;;;1082498;39;20387;-68
2022/03/04 17:10:29;;;;;;;16.50;10.45;;;20.50;21.20;;;;;;1082062;39;20387;-69
2022/03/04 17:11:50;;;;;;;14.40;9.63;;;20.30;21.40;;;;;;1081286;46;20043;-69
2022/03/04 17:13:12;;;;;;;16.75;10.05;;;20.20;21.60;;;;;;1081616;47;20526;-68
2022/03/04 17:14:34;;;;;;;15.15;10.10;;;20.00;21.80;;;;;;1082342;39;20732;-69
2022/03/04 17:15:54;;;;;;;13.70;9.50;;;19.90;22.00;;;;;;1081795;47;20038;-68
2022/03/04 17:17:15;;;;;;;14.27;9.90;;;19.70;22.00;;;;;;1082287;46;20156;-70
2022/03/04 17:18:36;;;;;;;15.68;10.32;;;19.50;22.10;;;;;;1082257;46;20042;-69
2022/03/04 17:19:57;;;;;;;13.70;10.00;;;19.40;22.20;;;;;;1082037;46;20083;-69
2022/03/04 17:21:18;;;;;;;14.27;9.35;;;19.30;22.40;;;;;;1081465;47;20042;-69
2022/03/04 17:22:41;;;;;;;13.27;9.73;;;19.20;22.50;;;;;;1081163;47;20057;-70
2022/03/04 17:24:02;;;;;;;13.65;9.13;;;19.00;22.80;;;;;;1082446;46;20522;-69
2022/03/04 17:25:25;;;;;;;13.90;9.60;;;18.90;23.00;;;;;;1081946;39;20423;-70
2022/03/04 17:26:46;;;;;;;15.73;10.25;;;18.80;23.00;;;;;;1081321;39;20885;-69
2022/03/04 17:28:08;;;;;;;15.52;9.50;;;18.70;23.10;;;;;;1081202;46;20063;-69
2022/03/04 17:29:29;;;;;;;14.82;10.32;;;18.60;23.20;;;;;;1082286;46;20069;-69
2022/03/04 17:30:50;;;;;;;18.58;9.45;;;18.40;23.20;;;;;;1081628;47;20876;-70
2022/03/04 17:32:12;;;;;;;17.88;10.45;;;18.30;23.40;;;;;;1081890;46;20030;-69
2022/03/04 17:33:33;;;;;;;13.70;9.43;;;18.20;23.70;;;;;;1082015;46;20122;-69
2022/03/04 17:34:55;;;;;;;14.25;9.85;;;18.10;23.80;;;;;;1081619;47;20042;-70
2022/03/04 17:36:17;;;;;;;16.33;10.40;;;18.00;23.90;;;;;;1081670;47;20037;-69
2022/03/04 17:37:38;;;;;;;14.45;9.43;;;17.90;24.00;;;;;;1081236;47;20039;-68
2022/03/04 17:39:00;;;;;;;14.10;9.73;;;17.80;24.10;;;;;;1081017;46;20070;-69
2022/03/04 17:40:21;;;;;;;16.58;10.32;;;17.60;24.20;;;;;;1081241;54;20066;-69
2022/03/04 17:41:43;;;;;;;14.93;10.13;;;17.60;24.30;;;;;;1082177;47;20038;-70
2022/03/04 17:43:04;;;;;;;14.77;9.48;;;17.50;24.40;;;;;;1082199;47;20059;-69
2022/03/04 17:44:26;;;;;;;16.13;10.10;;;17.40;24.50;;;;;;1081912;39;20411;-68
2022/03/04 17:45:48;;;;;;;16.92;10.18;;;17.30;24.60;;;;;;1080758;47;20055;-70
2022/03/04 17:47:09;;;;;;;14.93;10.02;;;17.20;24.70;;;;;;1080279;46;20073;-70
2022/03/04 17:48:30;;;;;;;16.15;10.35;;;17.10;24.80;;;;;;1080971;46;20038;-70
2022/03/04 17:49:52;;;;;;;14.98;9.23;;;17.00;24.90;;;;;;1079224;47;20604;-69
2022/03/04 17:51:12;;;;;;;15.43;9.63;;;16.90;25.00;;;;;;1080272;47;20510;-69
2022/03/04 17:52:34;;;;;;;13.60;9.05;;;16.90;25.10;;;;;;1081721;46;20068;-69
2022/03/04 17:53:55;;;;;;;14.63;9.10;;;16.80;25.20;;;;;;1082141;47;20041;-70
2022/03/04 17:55:16;;;;;;;14.45;9.23;;;16.70;25.30;;;;;;1080073;39;20394;-69
2022/03/04 17:56:37;;;;;;;13.20;8.77;;;16.60;25.40;;;;;;1080297;47;20922;-69
2022/03/04 17:57:58;;;;;;;13.88;8.98;;;16.50;25.50;;;;;;1080867;47;20042;-68
2022/03/04 17:59:19;;;;;;;15.90;9.55;;;16.50;25.60;;;;;;1081752;47;20136;-69
2022/03/04 18:00:40;;;;;;;14.20;8.93;;;16.40;25.70;;;;;;1081087;47;20114;-68
2022/03/04 18:02:02;;;;;;;16.17;9.57;;;16.30;25.70;;;;;;1081913;47;20045;-69
2022/03/04 18:03:23;;;;;;;13.65;8.82;;;16.20;25.80;;;;;;1082249;47;20066;-69
2022/03/04 18:04:45;;;;;;;13.57;9.23;;;16.20;26.30;;;;;;1081396;47;20069;-69
2022/03/04 18:06:06;;;;;;;16.98;8.98;;;16.20;26.40;;;;;;1081181;47;20058;-68
2022/03/04 18:07:27;;;;;;;15.68;8.82;;;16.10;26.10;;;;;;1081344;47;20836;-69
2022/03/04 18:08:48;;;;;;;13.88;9.57;;;16.00;26.20;;;;;;1082063;46;20038;-69
2022/03/04 18:10:10;;;;;;;14.38;10.13;;;15.90;26.30;;;;;;1081404;47;20034;-69
2022/03/04 18:11:31;;;;;;;14.68;9.27;;;15.90;26.50;;;;;;1082155;47;20145;-68
2022/03/04 18:12:57;;;;;;;14.65;8.48;;;15.80;26.40;;;;;;1080831;47;20039;-68
2022/03/04 18:14:18;;;;;;;12.27;8.75;;;15.70;26.40;;;;;;1081597;47;20977;-69
2022/03/04 18:15:39;;;;;;;14.02;8.30;;;15.70;26.40;;;;;;1081226;46;20042;-69
2022/03/04 18:17:01;;;;;;;12.40;8.43;;;15.60;26.50;;;;;;1081113;46;20034;-70
2022/03/04 18:18:22;;;;;;;15.10;8.40;;;15.50;26.50;;;;;;1080973;47;20757;-69
2022/03/04 18:19:44;;;;;;;12.93;7.80;;;15.50;26.60;;;;;;1080963;47;20471;-69
2022/03/04 18:21:05;;;;;;;12.20;8.27;;;15.50;26.70;;;;;;1081648;46;20034;-70
2022/03/04 18:22:26;;;;;;;12.50;7.95;;;15.40;26.80;;;;;;1081542;47;20507;-70
2022/03/04 18:23:47;;;;;;;12.82;8.25;;;15.30;26.70;;;;;;1082513;39;20401;-68
2022/03/04 18:25:09;;;;;;;13.15;7.80;;;15.30;26.80;;;;;;1080757;47;20559;-68
2022/03/04 18:26:30;;;;;;;13.93;8.05;;;15.20;26.80;;;;;;1081052;46;20054;-68
2022/03/04 18:27:51;;;;;;;11.68;8.43;;;15.20;27.00;;;;;;1081901;47;20034;-69
2022/03/04 18:29:12;;;;;;;12.88;8.38;;;15.10;27.00;;;;;;1081992;54;20034;-68
2022/03/04 18:30:33;;;;;;;10.68;7.38;;;15.00;27.10;;;;;;1081881;39;20394;-69
2022/03/04 18:31:54;;;;;;;11.45;7.40;;;15.00;27.30;;;;;;1081092;47;20514;-71
2022/03/04 18:33:16;;;;;;;10.45;6.93;;;14.90;27.30;;;;;;1080982;47;20685;-70
2022/03/04 18:34:37;;;;;;;12.60;7.20;;;14.90;27.20;;;;;;1081113;47;20039;-68
2022/03/04 18:35:58;;;;;;;13.73;8.15;;;14.80;27.30;;;;;;1082150;47;20498;-69
2022/03/04 18:37:19;;;;;;;13.15;7.88;;;14.80;27.30;;;;;;1081805;47;20031;-68
2022/03/04 18:40:20;;;;;;;11.25;7.10;;;14.60;27.50;;;;;;1080800;47;20326;-70
2022/03/04 18:41:41;;;;;;;10.77;7.28;;;14.60;27.50;;;;;;1081051;47;20049;-69
2022/03/04 18:43:02;;;;;;;11.43;7.40;;;14.60;27.60;;;;;;1082085;47;20041;-69
2022/03/04 18:44:23;;;;;;;12.02;7.60;;;14.50;27.60;;;;;;1081340;39;20386;-69
2022/03/04 18:45:45;;;;;;;9.38;6.70;;;14.50;27.70;;;;;;1081499;47;20031;-70
2022/03/04 18:47:06;;;;;;;12.05;7.55;;;14.40;27.80;;;;;;1081889;47;20035;-69
2022/03/04 18:48:28;;;;;;;10.90;6.88;;;14.40;27.90;;;;;;1081323;47;21094;-69
2022/03/04 18:49:51;;;;;;;11.75;7.07;;;14.30;28.00;;;;;;1081173;47;20038;-71
2022/03/04 18:51:15;;;;;;;10.45;6.88;;;14.30;28.00;;;;;;1081326;47;20061;-68
2022/03/04 18:52:36;;;;;;;11.85;7.03;;;14.20;28.00;;;;;;1081510;47;20035;-69
2022/03/04 18:53:57;;;;;;;11.43;7.70;;;14.20;28.10;;;;;;1080236;54;20062;-69
2022/03/04 18:55:20;;;;;;;12.68;8.02;;;14.20;28.20;;;;;;1081575;47;20983;-69
2022/03/04 18:56:41;;;;;;;9.98;6.55;;;14.10;28.20;;;;;;1081928;54;20038;-69
2022/03/04 18:58:02;;;;;;;10.57;6.93;;;14.00;28.20;;;;;;1080692;47;20459;-69
2022/03/04 18:59:24;;;;;;;11.43;6.88;;;14.00;28.30;;;;;;1081360;47;20039;-69
2022/03/04 19:00:45;;;;;;;13.02;7.88;;;13.90;28.30;;;;;;1081839;47;20050;-69
2022/03/04 19:02:08;;;;;;;10.20;6.80;;;13.90;28.50;;;;;;1081917;47;20040;-68
2022/03/04 19:03:29;;;;;;;11.50;7.70;;;13.90;28.50;;;;;;1081589;47;20492;-68
2022/03/04 19:04:50;;;;;;;11.77;7.10;;;13.80;28.50;;;;;;1081567;47;20027;-69
2022/03/04 19:06:11;;;;;;;13.80;7.72;;;13.70;28.50;;;;;;1081552;47;20542;-68
2022/03/04 19:07:32;;;;;;;8.77;6.15;;;13.70;28.50;;;;;;1081182;47;20045;-68
2022/03/04 19:08:53;;;;;;;11.13;7.05;;;13.70;28.60;;;;;;1082048;31;20529;-69
2022/03/04 19:10:16;;;;;;;11.48;7.45;;;13.60;28.60;;;;;;1081267;47;20590;-69
2022/03/04 19:11:40;;;;;;;12.60;7.38;;;13.60;28.70;;;;;;1081703;47;20976;-69
2022/03/04 19:13:01;;;;;;;11.85;7.90;;;13.50;28.70;;;;;;1081685;47;20633;-70
2022/03/04 19:14:22;;;;;;;12.20;7.60;;;13.50;28.70;;;;;;1080620;47;21434;-68
2022/03/04 19:15:43;;;;;;;12.05;7.70;;;13.50;28.80;;;;;;1080978;47;20074;-69
2022/03/04 19:17:05;;;;;;;9.88;7.03;;;13.40;28.90;;;;;;1081428;47;20565;-69
2022/03/04 19:18:26;;;;;;;10.65;6.90;;;13.40;29.00;;;;;;1081399;47;20108;-68
2022/03/04 19:19:48;;;;;;;14.45;7.65;;;13.30;29.10;;;;;;1081180;47;20038;-69
2022/03/04 19:21:09;;;;;;;12.00;6.65;;;13.30;29.10;;;;;;1081635;39;20736;-69
2022/03/04 19:22:30;;;;;;;10.05;7.25;;;13.20;29.10;;;;;;1082090;47;20907;-69
2022/03/04 19:23:51;;;;;;;11.07;7.20;;;13.20;29.10;;;;;;1081322;47;20031;-69
2022/03/04 19:25:13;;;;;;;11.00;7.53;;;13.20;29.10;;;;;;1080311;39;20826;-70
2022/03/04 19:26:39;;;;;;;12.35;7.80;;;13.10;29.10;;;;;;1081592;47;20069;-69
2022/03/04 19:28:00;;;;;;;11.18;7.97;;;13.10;29.20;;;;;;1081160;47;20520;-69
2022/03/04 19:29:22;;;;;;;15.50;7.97;;;13.10;29.40;;;;;;1082180;39;20363;-69
2022/03/04 19:30:43;;;;;;;13.20;7.68;;;13.00;29.40;;;;;;1081431;47;20030;-68
2022/03/04 19:32:05;;;;;;;11.10;7.40;;;13.00;29.60;;;;;;1080721;47;20031;-69
2022/03/04 19:33:27;;;;;;;13.15;8.45;;;13.00;29.70;;;;;;1081988;47;20034;-68
2022/03/04 19:34:48;;;;;;;12.70;7.82;;;12.90;29.70;;;;;;1082245;46;20042;-67
2022/03/04 19:36:09;;;;;;;11.90;7.28;;;12.90;29.60;;;;;;1082583;39;20394;-68
2022/03/04 19:37:31;;;;;;;14.40;7.55;;;12.90;29.60;;;;;;1081697;46;20038;-69
2022/03/04 19:38:52;;;;;;;8.93;6.65;;;12.80;29.60;;;;;;1081313;46;20074;-69
2022/03/04 19:40:14;;;;;;;9.95;7.20;;;12.80;29.60;;;;;;1081135;47;20034;-68
2022/03/04 19:41:36;;;;;;;10.93;7.97;;;12.80;29.80;;;;;;1082524;46;20046;-69
2022/03/04 19:42:57;;;;;;;11.15;8.18;;;12.70;29.80;;;;;;1082421;47;20035;-70
2022/03/04 19:44:22;;;;;;;9.80;6.82;;;12.70;30.00;;;;;;1081463;47;20062;-68
2022/03/04 19:45:43;;;;;;;11.48;7.25;;;12.60;30.00;;;;;;1080792;46;20038;-69
2022/03/04 19:47:05;;;;;;;10.18;7.00;;;12.60;30.00;;;;;;1081062;46;20038;-68
2022/03/04 19:48:26;;;;;;;10.85;7.32;;;12.60;30.00;;;;;;1081957;47;20133;-68
2022/03/04 19:49:48;;;;;;;11.23;6.82;;;12.60;30.00;;;;;;1081792;47;20069;-69
2022/03/04 19:51:09;;;;;;;11.45;8.20;;;12.50;30.20;;;;;;1082066;47;20093;-68
2022/03/04 19:52:30;;;;;;;13.90;7.03;;;12.50;30.30;;;;;;1081129;46;20045;-69
2022/03/04 19:53:52;;;;;;;11.73;7.47;;;12.40;30.30;;;;;;1082157;46;20041;-70
2022/03/04 19:55:13;;;;;;;10.70;6.70;;;12.40;30.50;;;;;;1080756;47;20042;-68
2022/03/04 19:56:34;;;;;;;11.90;7.30;;;12.40;30.60;;;;;;1081927;46;20069;-69
2022/03/04 19:57:55;;;;;;;10.63;6.75;;;12.30;30.60;;;;;;1081672;47;20130;-69
2022/03/04 19:59:21;;;;;;;10.75;7.22;;;12.30;30.70;;;;;;1081896;46;20035;-69
2022/03/04 20:00:42;;;;;;;9.90;6.68;;;12.30;30.80;;;;;;1080693;46;20059;-69
2022/03/04 20:02:03;;;;;;;10.73;7.30;;;12.20;30.70;;;;;;1082387;46;20125;-71
2022/03/04 20:03:25;;;;;;;10.43;7.38;;;12.30;30.80;;;;;;1082200;47;20082;-68
2022/03/04 20:04:46;;;;;;;11.10;7.80;;;12.20;30.90;;;;;;1081338;46;20082;-69
2022/03/04 20:06:06;;;;;;;11.20;7.35;;;12.20;31.00;;;;;;1082039;46;20042;-70
2022/03/04 20:07:28;;;;;;;13.27;7.63;;;12.10;31.10;;;;;;1081437;46;20043;-69
2022/03/04 20:08:50;;;;;;;10.43;7.35;;;12.10;31.20;;;;;;1082382;46;20038;-69
2022/03/04 20:10:11;;;;;;;11.00;7.10;;;12.10;31.30;;;;;;1082376;39;20467;-69
2022/03/04 20:11:32;;;;;;;10.93;7.68;;;12.00;31.20;;;;;;1081404;47;20609;-69
2022/03/04 20:12:53;;;;;;;10.85;7.00;;;12.00;31.30;;;;;;1081713;46;20094;-68
2022/03/04 20:14:14;;;;;;;10.68;7.03;;;12.00;31.50;;;;;;1082586;39;20434;-69
2022/03/04 20:15:35;;;;;;;11.75;7.15;;;11.90;31.60;;;;;;1081039;47;20538;-68
2022/03/04 20:16:56;;;;;;;11.20;8.07;;;11.90;31.60;;;;;;1081758;47;20037;-68
2022/03/04 20:18:19;;;;;;;12.27;7.13;;;11.90;31.80;;;;;;1081588;47;20034;-69
2022/03/04 20:19:40;;;;;;;11.27;7.28;;;11.90;31.90;;;;;;1081705;46;20035;-70
2022/03/04 20:21:03;;;;;;;11.68;7.70;;;11.80;31.90;;;;;;1081843;47;20496;-69
2022/03/04 20:22:24;;;;;;;10.85;7.78;;;11.80;32.00;;;;;;1081831;46;20038;-69
2022/03/04 20:23:45;;;;;;;11.32;7.22;;;11.80;32.20;;;;;;1081849;46;20057;-69
2022/03/04 20:25:07;;;;;;;12.45;8.05;;;11.70;32.10;;;;;;1080653;46;20046;-69
2022/03/04 20:26:29;;;;;;;13.13;7.00;;;11.70;32.20;;;;;;1081702;47;20041;-69
2022/03/04 20:27:50;;;;;;;12.07;7.80;;;11.70;32.30;;;;;;1081335;47;20859;-68
2022/03/04 20:29:10;;;;;;;14.30;8.50;;;11.70;32.30;;;;;;1082137;46;20055;-69
2022/03/04 20:30:35;;;;;;;11.63;7.57;;;11.60;32.40;;;;;;1080792;46;20514;-69
2022/03/04 20:31:56;;;;;;;11.73;7.32;;;11.60;32.60;;;;;;1081675;46;20853;-69
2022/03/04 20:33:17;;;;;;;12.63;7.82;;;11.60;32.50;;;;;;1081388;46;20043;-69
2022/03/04 20:34:38;;;;;;;11.63;7.03;;;11.60;32.80;;;;;;1082172;47;20086;-69
2022/03/04 20:36:01;;;;;;;10.65;7.13;;;11.50;32.80;;;;;;1082222;39;20371;-70
2022/03/04 20:37:23;;;;;;;10.80;6.78;;;11.50;32.90;;;;;;1081546;47;20701;-69
2022/03/04 20:38:46;;;;;;;12.63;7.55;;;11.40;32.80;;;;;;1081665;47;20058;-68
2022/03/04 20:40:08;;;;;;;10.93;7.60;;;11.40;32.90;;;;;;1081035;47;20034;-69
2022/03/04 20:41:29;;;;;;;11.40;7.53;;;11.40;33.00;;;;;;1081619;46;20059;-68
2022/03/04 20:42:50;;;;;;;13.88;8.02;;;11.40;33.00;;;;;;1082172;46;20034;-68
2022/03/04 20:44:14;;;;;;;13.18;8.10;;;11.30;33.10;;;;;;1082043;46;20034;-69
2022/03/04 20:45:36;;;;;;;10.45;6.82;;;11.30;33.20;;;;;;1080228;47;20519;-68
2022/03/04 20:46:57;;;;;;;10.45;7.22;;;11.30;33.30;;;;;;1081615;46;20034;-69
2022/03/04 20:48:18;;;;;;;11.02;7.05;;;11.30;33.40;;;;;;1081208;47;20959;-69
2022/03/04 20:49:40;;;;;;;10.68;7.30;;;11.20;33.40;;;;;;1081472;47;20134;-69
2022/03/04 20:51:02;;;;;;;11.45;7.97;;;11.20;33.50;;;;;;1080916;46;20035;-68
2022/03/04 20:52:23;;;;;;;12.13;7.32;;;11.20;33.70;;;;;;1080932;47;20038;-69
2022/03/04 20:53:44;;;;;;;12.00;7.68;;;11.10;33.70;;;;;;1081562;46;20046;-69
2022/03/04 20:55:06;;;;;;;13.15;7.80;;;11.10;33.80;;;;;;1082282;46;20035;-69
2022/03/04 20:56:27;;;;;;;11.27;7.35;;;11.10;33.80;;;;;;1081411;47;20045;-69
2022/03/04 20:57:48;;;;;;;13.75;7.38;;;11.00;33.90;;;;;;1081030;46;20162;-68
2022/03/04 20:59:10;;;;;;;11.90;7.25;;;11.00;33.90;;;;;;1081478;47;20475;-68
2022/03/04 21:00:31;;;;;;;13.25;8.30;;;11.00;34.00;;;;;;1081868;47;20495;-68
2022/03/04 21:01:52;;;;;;;14.20;7.78;;;11.00;34.10;;;;;;1082213;46;20091;-69
2022/03/04 21:03:13;;;;;;;14.00;8.35;;;11.00;34.30;;;;;;1082067;46;20034;-69
2022/03/04 21:04:34;;;;;;;14.50;9.05;;;10.90;34.40;;;;;;1081052;47;20038;-70
2022/03/04 21:05:54;;;;;;;14.57;7.72;;;10.90;34.50;;;;;;1081742;47;20034;-69
2022/03/04 21:07:16;;;;;;;11.90;7.72;;;10.90;34.50;;;;;;1082059;47;20026;-70
2022/03/04 21:08:36;;;;;;;14.07;8.32;;;10.80;34.50;;;;;;1082398;47;20058;-69
2022/03/04 21:09:57;;;;;;;16.02;8.23;;;10.80;34.70;;;;;;1081443;39;20805;-69
2022/03/04 21:11:19;;;;;;;12.88;8.65;;;10.80;34.80;;;;;;1082035;47;20161;-70
2022/03/04 21:12:40;;;;;;;14.10;8.70;;;10.70;34.80;;;;;;1082148;47;20043;-70
2022/03/04 21:14:01;;;;;;;14.15;8.77;;;10.70;34.90;;;;;;1080105;46;21064;-71
2022/03/04 21:15:22;;;;;;;12.95;8.70;;;10.70;34.90;;;;;;1081032;46;20159;-69
2022/03/04 21:16:43;;;;;;;12.52;8.60;;;10.60;34.90;;;;;;1081050;47;20545;-69
2022/03/04 21:18:04;;;;;;;12.95;8.32;;;10.60;35.00;;;;;;1081792;46;20038;-69
2022/03/04 21:19:25;;;;;;;11.20;8.30;;;10.60;35.10;;;;;;1082555;46;20038;-69
2022/03/04 21:20:46;;;;;;;12.85;8.32;;;10.60;35.10;;;;;;1081762;47;20034;-70
2022/03/04 21:22:08;;;;;;;16.67;8.57;;;10.50;35.10;;;;;;1081098;46;20038;-69
2022/03/04 21:23:29;;;;;;;13.82;8.68;;;10.50;35.10;;;;;;1081701;46;20034;-68
2022/03/04 21:24:51;;;;;;;14.80;9.05;;;10.50;35.10;;;;;;1081673;47;20831;-69
2022/03/04 21:26:12;;;;;;;12.75;8.68;;;10.40;35.20;;;;;;1081273;46;20038;-68
2022/03/04 21:27:33;;;;;;;13.15;8.27;;;10.40;35.30;;;;;;1080234;47;20634;-67
2022/03/04 21:28:54;;;;;;;15.05;8.98;;;10.40;35.50;;;;;;1080222;46;20034;-68
2022/03/04 21:30:16;;;;;;;13.40;8.23;;;10.40;36.00;;;;;;1080189;47;20050;-68
2022/03/04 21:31:36;;;;;;;13.10;8.63;;;10.30;35.40;;;;;;1081191;46;20046;-68
2022/03/04 21:32:58;;;;;;;13.30;8.07;;;10.30;35.50;;;;;;1082352;46;21556;-68
2022/03/04 21:34:19;;;;;;;13.95;8.13;;;10.30;35.70;;;;;;1081792;46;20121;-68
2022/03/04 21:35:40;;;;;;;12.90;8.30;;;10.30;35.60;;;;;;1081742;47;20035;-68
2022/03/04 21:37:03;;;;;;;12.02;7.85;;;10.20;35.60;;;;;;1081859;47;20145;-68
2022/03/04 21:38:24;;;;;;;11.85;8.55;;;10.20;35.60;;;;;;1081864;46;20038;-68
2022/03/04 21:39:46;;;;;;;13.60;9.25;;;10.10;35.70;;;;;;1081510;47;20041;-68
2022/03/04 21:41:07;;;;;;;15.18;9.00;;;10.10;35.90;;;;;;1081533;46;20056;-69
2022/03/04 21:42:29;;;;;;;14.13;8.98;;;10.10;36.00;;;;;;1081884;47;20034;-69
2022/03/04 21:43:50;;;;;;;13.23;8.48;;;10.10;36.10;;;;;;1081992;46;20042;-68
2022/03/04 21:45:12;;;;;;;14.68;8.73;;;10.10;36.00;;;;;;1081749;47;20034;-69
2022/03/04 21:46:34;;;;;;;12.93;8.65;;;10.10;36.00;;;;;;1080771;54;20042;-68
2022/03/04 21:47:55;;;;;;;12.48;8.43;;;10.00;36.00;;;;;;1081004;47;20509;-68
2022/03/04 21:49:16;;;;;;;13.25;8.98;;;10.00;36.00;;;;;;1080735;47;20044;-68
2022/03/04 21:50:42;;;;;;;11.38;8.43;;;10.00;36.10;;;;;;1081019;47;20035;-68
2022/03/04 21:52:04;;;;;;;12.38;7.88;;;10.00;36.10;;;;;;1081621;39;20390;-68
2022/03/04 21:53:25;;;;;;;13.15;8.82;;;9.90;36.10;;;;;;1081120;39;20402;-68
2022/03/04 21:54:46;;;;;;;14.43;9.25;;;9.90;36.10;;;;;;1080708;46;20086;-68
2022/03/04 21:56:11;;;;;;;13.18;8.68;;;9.90;36.10;;;;;;1080895;47;20517;-68
2022/03/04 21:57:32;;;;;;;12.50;8.82;;;9.80;36.10;;;;;;1080444;47;20585;-69
2022/03/04 21:58:53;;;;;;;14.65;8.95;;;9.80;36.10;;;;;;1080858;47;20543;-69
2022/03/04 22:00:16;;;;;;;14.50;9.02;;;9.80;36.10;;;;;;1081148;39;20367;-70
2022/03/04 22:01:37;;;;;;;14.52;9.27;;;9.80;36.20;;;;;;1082174;47;20826;-69
2022/03/04 22:02:59;;;;;;;13.27;8.70;;;9.70;36.10;;;;;;1080746;47;20038;-69
2022/03/04 22:04:20;;;;;;;15.63;9.02;;;9.80;36.30;;;;;;1081420;39;20375;-69
2022/03/04 22:05:41;;;;;;;14.52;8.98;;;9.70;36.20;;;;;;1081091;47;20483;-69
2022/03/04 22:07:02;;;;;;;12.52;9.13;;;9.70;36.20;;;;;;1080847;46;20062;-69
2022/03/04 22:08:23;;;;;;;16.23;9.18;;;9.70;36.30;;;;;;1081751;47;20038;-69
2022/03/04 22:09:44;;;;;;;17.10;8.70;;;9.70;36.20;;;;;;1080943;47;20034;-69
2022/03/04 22:11:06;;;;;;;16.35;9.30;;;9.60;36.20;;;;;;1081332;46;20514;-69
2022/03/04 22:12:27;;;;;;;17.75;9.55;;;9.70;36.30;;;;;;1081252;39;20494;-69
2022/03/04 22:13:48;;;;;;;14.70;9.45;;;9.60;36.30;;;;;;1080606;47;20041;-69
2022/03/04 22:15:09;;;;;;;14.65;9.18;;;9.60;36.30;;;;;;1080777;47;20895;-68